Time;durP1;ratioP1;P1;durP2;ratioP2;P2;SDS_P1;SDS_P2;PMS_P1;PMS_P2;Temp;Humidity;BMP_temperature;BMP_pressure;BME280_temperature;BME280_humidity;BME280_pressure;Samples;Min_cycle;Max_cycle;Signal;HPM_P1;HPM_P2
2022/05/15 00:01:36;;;;;;;;;26.00;21.00;;;;;;;;5035792;28;9390;-65
2022/05/15 00:04:03;;;;;;;;;28.00;25.75;;;;;;;;5037005;28;8930;-65
2022/05/15 00:06:29;;;;;;;;;27.75;26.50;;;;;;;;5035951;28;8794;-65
2022/05/15 00:08:56;;;;;;;;;40.75;34.00;;;;;;;;5036279;28;8756;-66
2022/05/15 00:11:23;;;;;;;;;42.25;33.75;;;;;;;;5052282;28;8758;-64
2022/05/15 00:13:49;;;;;;;;;38.00;32.00;;;;;;;;5056126;28;9388;-65
2022/05/15 00:16:17;;;;;;;;;34.75;31.75;;;;;;;;5056603;28;8747;-65
2022/05/15 00:18:43;;;;;;;;;31.50;29.00;;;;;;;;5056093;28;8739;-65
2022/05/15 00:21:10;;;;;;;;;28.50;26.00;;;;;;;;5055953;28;8743;-65
2022/05/15 00:23:37;;;;;;;;;27.80;23.40;;;;;;;;5057028;28;8845;-65
2022/05/15 00:26:04;;;;;;;;;25.40;23.40;;;;;;;;5045174;28;8856;-65
2022/05/15 00:28:31;;;;;;;;;24.40;24.20;;;;;;;;5029725;28;8757;-65
2022/05/15 00:30:57;;;;;;;;;22.80;21.60;;;;;;;;5039186;28;8815;-65
2022/05/15 00:33:24;;;;;;;;;24.00;19.80;;;;;;;;5039213;28;8748;-65
2022/05/15 00:35:52;;;;;;;;;23.20;21.80;;;;;;;;5038449;28;8973;-65
2022/05/15 00:38:19;;;;;;;;;20.40;18.20;;;;;;;;5039223;28;8768;-64
2022/05/15 00:40:46;;;;;;;;;18.40;18.20;;;;;;;;5049727;28;8755;-65
2022/05/15 00:43:14;;;;;;;;;19.60;18.00;;;;;;;;5042363;28;8743;-65
2022/05/15 00:45:40;;;;;;;;;17.20;15.00;;;;;;;;5058888;28;8731;-65
2022/05/15 00:48:07;;;;;;;;;20.80;19.40;;;;;;;;5059092;28;8790;-65
2022/05/15 00:50:34;;;;;;;;;16.40;16.20;;;;;;;;5059111;28;8767;-65
2022/05/15 00:53:03;;;;;;;;;23.00;16.60;;;;;;;;5041688;28;8893;-65
2022/05/15 00:55:32;;;;;;;;;21.80;18.80;;;;;;;;5027816;28;8779;-65
2022/05/15 00:58:00;;;;;;;;;23.60;20.00;;;;;;;;5002459;28;9448;-65
2022/05/15 01:00:28;;;;;;;;;19.40;13.60;;;;;;;;5001617;28;8755;-65
2022/05/15 01:03:11;;;;;;;;;22.40;19.20;;;;;;;;5019295;28;8866;-65
2022/05/15 01:05:39;;;;;;;;;19.20;16.00;;;;;;;;5001339;28;8925;-65
2022/05/15 01:08:07;;;;;;;;;18.40;16.80;;;;;;;;5018912;28;9437;-65
2022/05/15 01:10:34;;;;;;;;;23.00;19.60;;;;;;;;5009419;28;8786;-65
2022/05/15 01:13:01;;;;;;;;;25.60;23.20;;;;;;;;5018718;28;8743;-65
2022/05/15 01:15:28;;;;;;;;;27.80;21.40;;;;;;;;5018718;28;8803;-65
2022/05/15 01:17:55;;;;;;;;;25.40;24.00;;;;;;;;5018790;28;8864;-65
2022/05/15 01:20:23;;;;;;;;;25.60;19.60;;;;;;;;5018468;28;8805;-64
2022/05/15 01:22:49;;;;;;;;;20.40;20.40;;;;;;;;5018338;28;8762;-65
2022/05/15 01:25:17;;;;;;;;;23.60;21.40;;;;;;;;5033737;28;9493;-66
2022/05/15 01:27:49;;;;;;;;;24.40;22.00;;;;;;;;5019326;28;9482;-65
2022/05/15 01:30:16;;;;;;;;;24.80;24.20;;;;;;;;5017567;28;8746;-65
2022/05/15 01:32:46;;;;;;;;;27.80;24.20;;;;;;;;5017277;28;8763;-65
2022/05/15 01:35:12;;;;;;;;;29.20;23.40;;;;;;;;5031017;28;8786;-65
2022/05/15 01:37:39;;;;;;;;;27.40;22.20;;;;;;;;5018353;28;8769;-65
2022/05/15 01:40:08;;;;;;;;;31.60;26.60;;;;;;;;5018785;28;8759;-65
2022/05/15 01:42:34;;;;;;;;;30.80;25.00;;;;;;;;5018138;28;8790;-65
2022/05/15 01:45:01;;;;;;;;;25.20;22.80;;;;;;;;5018248;28;8967;-66
2022/05/15 01:47:31;;;;;;;;;24.40;21.80;;;;;;;;5018158;28;8857;-65
2022/05/15 01:49:57;;;;;;;;;26.80;22.60;;;;;;;;5017113;28;8790;-66
2022/05/15 01:52:24;;;;;;;;;27.20;22.40;;;;;;;;5018723;28;8743;-66
2022/05/15 01:54:51;;;;;;;;;24.20;22.60;;;;;;;;5014289;28;8840;-65
2022/05/15 01:57:17;;;;;;;;;21.40;20.40;;;;;;;;4998094;28;8781;-65
2022/05/15 01:59:44;;;;;;;;;25.40;24.40;;;;;;;;4998752;28;8761;-65
2022/05/15 02:02:11;;;;;;;;;20.80;20.80;;;;;;;;4998756;28;8737;-66
2022/05/15 02:04:38;;;;;;;;;23.60;20.60;;;;;;;;4997886;28;8844;-65
2022/05/15 02:07:05;;;;;;;;;23.80;18.80;;;;;;;;4998814;28;8745;-65
2022/05/15 02:09:31;;;;;;;;;23.60;20.60;;;;;;;;4999413;28;9489;-65
2022/05/15 02:11:58;;;;;;;;;24.00;24.00;;;;;;;;5031180;28;8780;-66
2022/05/15 02:14:25;;;;;;;;;23.60;20.60;;;;;;;;5037209;28;8852;-65
2022/05/15 02:16:52;;;;;;;;;23.80;22.20;;;;;;;;5020284;28;8800;-66
2022/05/15 02:19:18;;;;;;;;;27.40;22.00;;;;;;;;5020430;28;8769;-65
2022/05/15 02:21:45;;;;;;;;;23.80;22.40;;;;;;;;5037334;28;8876;-65
2022/05/15 02:24:12;;;;;;;;;25.80;22.60;;;;;;;;5037571;28;8797;-65
2022/05/15 02:26:39;;;;;;;;;28.20;23.60;;;;;;;;5037045;28;9430;-65
2022/05/15 02:29:06;;;;;;;;;23.60;21.60;;;;;;;;5037461;28;8765;-66
2022/05/15 02:31:33;;;;;;;;;25.80;23.20;;;;;;;;5036954;28;8863;-65
2022/05/15 02:34:00;;;;;;;;;24.80;22.40;;;;;;;;5038150;28;8783;-65
2022/05/15 02:36:28;;;;;;;;;24.40;22.00;;;;;;;;5025769;28;8765;-65
2022/05/15 02:38:54;;;;;;;;;20.60;18.20;;;;;;;;5037365;28;8762;-65
2022/05/15 02:41:21;;;;;;;;;25.20;20.80;;;;;;;;5036820;28;9288;-64
2022/05/15 02:43:48;;;;;;;;;24.40;20.00;;;;;;;;5037289;28;8768;-65
2022/05/15 02:46:16;;;;;;;;;21.00;20.80;;;;;;;;5037262;28;8774;-65
2022/05/15 02:51:27;;;;;;;;;24.00;23.20;;;;;;;;5021859;28;8761;-65
2022/05/15 02:53:54;;;;;;;;;23.40;21.40;;;;;;;;5036859;28;8855;-66
2022/05/15 02:56:22;;;;;;;;;21.40;18.80;;;;;;;;5036353;28;8753;-64
2022/05/15 02:58:49;;;;;;;;;25.80;21.80;;;;;;;;5037068;28;8750;-65
2022/05/15 03:01:15;;;;;;;;;20.40;20.00;;;;;;;;5037545;28;8738;-65
2022/05/15 03:03:42;;;;;;;;;22.40;20.80;;;;;;;;5019005;28;8754;-65
2022/05/15 03:06:09;;;;;;;;;29.20;26.60;;;;;;;;5036632;28;8757;-65
2022/05/15 03:08:37;;;;;;;;;22.60;21.40;;;;;;;;4992488;28;9404;-65
2022/05/15 03:11:04;;;;;;;;;22.00;20.40;;;;;;;;5018871;28;8944;-65
2022/05/15 03:13:31;;;;;;;;;21.80;20.40;;;;;;;;5036126;28;8718;-65
2022/05/15 03:15:58;;;;;;;;;25.20;22.00;;;;;;;;5019873;28;8766;-65
2022/05/15 03:18:24;;;;;;;;;21.40;19.60;;;;;;;;5036368;28;8749;-65
2022/05/15 03:20:51;;;;;;;;;23.40;22.80;;;;;;;;5036375;28;8769;-66
2022/05/15 03:23:18;;;;;;;;;20.40;18.20;;;;;;;;5035028;28;8777;-65
2022/05/15 03:25:45;;;;;;;;;28.00;22.60;;;;;;;;5036298;28;8829;-65
2022/05/15 03:28:11;;;;;;;;;24.00;22.00;;;;;;;;5037348;28;8762;-65
2022/05/15 03:30:39;;;;;;;;;24.60;22.40;;;;;;;;5036014;28;8793;-65
2022/05/15 03:33:05;;;;;;;;;23.80;21.60;;;;;;;;5036527;28;8781;-65
2022/05/15 03:35:32;;;;;;;;;28.80;23.80;;;;;;;;5036757;28;8833;-65
2022/05/15 03:37:59;;;;;;;;;22.00;22.00;;;;;;;;5036869;28;8892;-66
2022/05/15 03:40:27;;;;;;;;;23.00;20.00;;;;;;;;5035900;28;8750;-64
2022/05/15 03:42:53;;;;;;;;;23.00;21.60;;;;;;;;5036784;28;8774;-66
2022/05/15 03:45:20;;;;;;;;;26.20;21.80;;;;;;;;5036087;28;8951;-65
2022/05/15 03:47:47;;;;;;;;;20.50;18.25;;;;;;;;5036248;28;8758;-65
2022/05/15 03:50:14;;;;;;;;;23.00;21.20;;;;;;;;5036285;28;8766;-65
2022/05/15 03:52:41;;;;;;;;;24.00;23.60;;;;;;;;5035727;28;8784;-65
2022/05/15 03:55:10;;;;;;;;;28.60;23.80;;;;;;;;5036365;28;8797;-65
2022/05/15 03:57:37;;;;;;;;;26.80;24.20;;;;;;;;5036814;28;8820;-65
2022/05/15 04:00:04;;;;;;;;;26.20;25.60;;;;;;;;5022605;28;8765;-65
2022/05/15 04:02:31;;;;;;;;;23.60;19.80;;;;;;;;5039912;28;9426;-65
2022/05/15 04:04:58;;;;;;;;;22.00;22.00;;;;;;;;5040044;28;8868;-65
2022/05/15 04:07:25;;;;;;;;;24.20;22.80;;;;;;;;5039426;28;8750;-64
2022/05/15 04:09:51;;;;;;;;;22.40;20.20;;;;;;;;5040275;28;8749;-65
2022/05/15 04:12:18;;;;;;;;;24.80;22.80;;;;;;;;5039677;28;8773;-64
2022/05/15 04:14:45;;;;;;;;;22.00;20.80;;;;;;;;5039941;28;8769;-65
2022/05/15 04:17:12;;;;;;;;;26.20;21.00;;;;;;;;5039662;28;8808;-65
2022/05/15 04:19:39;;;;;;;;;22.60;20.80;;;;;;;;5022067;28;8777;-65
2022/05/15 04:22:05;;;;;;;;;17.60;17.60;;;;;;;;5040376;28;8827;-65
2022/05/15 04:24:35;;;;;;;;;23.40;22.00;;;;;;;;5038909;28;9442;-65
2022/05/15 04:27:02;;;;;;;;;23.40;18.00;;;;;;;;5039783;28;8774;-65
2022/05/15 04:29:29;;;;;;;;;19.00;17.20;;;;;;;;5021592;28;8758;-65
2022/05/15 04:31:56;;;;;;;;;19.00;16.80;;;;;;;;5039243;28;9275;-65
2022/05/15 04:34:27;;;;;;;;;22.20;19.60;;;;;;;;5022111;28;8757;-66
2022/05/15 04:36:53;;;;;;;;;22.00;18.00;;;;;;;;5039937;28;8770;-66
2022/05/15 04:39:20;;;;;;;;;20.40;20.40;;;;;;;;5039196;28;8733;-64
2022/05/15 04:41:47;;;;;;;;;18.80;15.00;;;;;;;;5039312;28;8737;-65
2022/05/15 04:44:13;;;;;;;;;23.40;21.40;;;;;;;;5031282;28;9420;-65
2022/05/15 04:46:40;;;;;;;;;21.50;21.00;;;;;;;;5019343;28;8747;-65
2022/05/15 04:49:07;;;;;;;;;26.00;22.50;;;;;;;;5020072;28;8719;-65
2022/05/15 04:51:34;;;;;;;;;25.00;19.00;;;;;;;;5034350;28;8739;-65
2022/05/15 04:54:00;;;;;;;;;26.40;20.40;;;;;;;;5019371;28;8772;-66
2022/05/15 04:56:28;;;;;;;;;19.80;18.40;;;;;;;;5001781;28;8765;-65
2022/05/15 04:58:54;;;;;;;;;24.80;20.80;;;;;;;;4976939;28;8794;-66
2022/05/15 05:01:24;;;;;;;;;20.20;17.60;;;;;;;;4999666;28;9404;-65
2022/05/15 05:03:52;;;;;;;;;16.60;16.00;;;;;;;;5019541;28;8756;-65
2022/05/15 05:06:18;;;;;;;;;18.20;15.80;;;;;;;;5018623;28;8853;-64
2022/05/15 05:08:45;;;;;;;;;17.80;17.00;;;;;;;;5001574;28;9120;-65
2022/05/15 05:11:12;;;;;;;;;23.00;17.00;;;;;;;;5033548;28;8753;-66
2022/05/15 05:13:39;;;;;;;;;25.80;22.00;;;;;;;;5037107;28;8749;-65
2022/05/15 05:16:05;;;;;;;;;23.20;18.80;;;;;;;;5021748;28;8737;-65
2022/05/15 05:18:32;;;;;;;;;22.40;18.80;;;;;;;;5038318;28;8847;-65
2022/05/15 05:20:59;;;;;;;;;18.20;16.00;;;;;;;;5038590;28;8789;-66
2022/05/15 05:23:26;;;;;;;;;26.40;20.00;;;;;;;;5038061;28;8770;-65
2022/05/15 05:25:52;;;;;;;;;22.40;21.20;;;;;;;;5038369;28;8835;-66
2022/05/15 05:28:19;;;;;;;;;21.40;16.60;;;;;;;;5020719;28;9462;-64
2022/05/15 05:30:46;;;;;;;;;19.80;19.80;;;;;;;;5020698;28;8781;-65
2022/05/15 05:33:13;;;;;;;;;23.50;18.25;;;;;;;;5038306;28;8839;-63
2022/05/15 05:35:40;;;;;;;;;21.60;20.00;;;;;;;;5038429;28;8825;-66
2022/05/15 05:38:06;;;;;;;;;18.80;16.80;;;;;;;;5038225;28;8761;-65
2022/05/15 05:40:33;;;;;;;;;19.40;15.80;;;;;;;;5037375;28;8773;-65
2022/05/15 05:43:00;;;;;;;;;21.75;18.25;;;;;;;;5037524;28;8741;-65
2022/05/15 05:45:27;;;;;;;;;23.40;19.00;;;;;;;;5038045;28;8878;-66
2022/05/15 05:47:55;;;;;;;;;21.60;19.80;;;;;;;;5037977;28;8789;-65
2022/05/15 05:50:22;;;;;;;;;19.00;16.80;;;;;;;;5037525;28;8789;-65
2022/05/15 05:52:49;;;;;;;;;19.60;18.40;;;;;;;;5038035;28;8888;-66
2022/05/15 05:55:16;;;;;;;;;27.25;24.25;;;;;;;;5038147;28;8884;-65
2022/05/15 05:57:43;;;;;;;;;19.50;17.50;;;;;;;;5016896;28;8767;-65
2022/05/15 06:00:14;;;;;;;;;33.50;28.25;;;;;;;;5016873;28;8767;-65
2022/05/15 06:02:41;;;;;;;;;22.25;21.25;;;;;;;;5016887;28;8801;-65
2022/05/15 06:05:08;;;;;;;;;21.00;17.80;;;;;;;;5016762;28;8778;-65
2022/05/15 06:07:34;;;;;;;;;22.80;18.00;;;;;;;;5016265;28;8771;-65
2022/05/15 06:10:02;;;;;;;;;20.60;16.80;;;;;;;;5013108;28;8765;-66
2022/05/15 06:12:29;;;;;;;;;24.20;19.00;;;;;;;;4998341;28;8777;-65
2022/05/15 06:14:56;;;;;;;;;16.25;14.75;;;;;;;;4997310;28;8785;-65
2022/05/15 06:17:23;;;;;;;;;17.75;17.75;;;;;;;;4998086;28;8802;-65
2022/05/15 06:19:50;;;;;;;;;26.40;15.40;;;;;;;;4998116;28;8753;-65
2022/05/15 06:22:17;;;;;;;;;18.00;16.20;;;;;;;;5012686;28;8742;-64
2022/05/15 06:24:43;;;;;;;;;20.00;14.80;;;;;;;;4999499;28;8915;-65
2022/05/15 06:27:10;;;;;;;;;18.60;17.20;;;;;;;;5016491;28;8762;-65
2022/05/15 06:29:38;;;;;;;;;16.40;16.40;;;;;;;;5017393;28;8771;-65
2022/05/15 06:32:05;;;;;;;;;17.00;16.25;;;;;;;;5017481;28;8877;-65
2022/05/15 06:34:31;;;;;;;;;19.00;16.60;;;;;;;;5017221;28;8731;-65
2022/05/15 06:36:58;;;;;;;;;20.40;15.00;;;;;;;;5017836;28;8776;-65
2022/05/15 06:39:25;;;;;;;;;17.60;16.20;;;;;;;;5016405;28;8738;-65
2022/05/15 06:41:56;;;;;;;;;18.20;15.20;;;;;;;;4997659;28;8761;-65
2022/05/15 06:44:22;;;;;;;;;20.80;18.20;;;;;;;;5012808;28;8778;-65
2022/05/15 06:46:49;;;;;;;;;16.40;15.80;;;;;;;;4997782;28;8800;-65
2022/05/15 06:49:16;;;;;;;;;20.40;17.60;;;;;;;;4998202;28;8770;-65
2022/05/15 06:51:43;;;;;;;;;21.00;16.00;;;;;;;;4997551;28;8864;-66
2022/05/15 06:54:10;;;;;;;;;18.00;15.80;;;;;;;;4997751;28;8876;-66
2022/05/15 06:59:21;;;;;;;;;28.25;28.25;;;;;;;;5036202;28;8761;-65
2022/05/15 07:01:48;;;;;;;;;18.80;14.40;;;;;;;;5036912;28;8899;-65
2022/05/15 07:04:15;;;;;;;;;29.25;24.00;;;;;;;;5019818;28;8770;-66
2022/05/15 07:06:42;;;;;;;;;73.20;61.00;;;;;;;;5018905;28;8760;-66
2022/05/15 07:09:08;;;;;;;;;39.00;29.75;;;;;;;;5036660;28;8860;-66
2022/05/15 07:11:35;;;;;;;;;17.80;16.80;;;;;;;;5036101;28;9499;-65
2022/05/15 07:14:03;;;;;;;;;20.50;19.00;;;;;;;;5026599;28;8773;-65
2022/05/15 07:16:30;;;;;;;;;38.75;31.25;;;;;;;;5035641;28;8765;-65
2022/05/15 07:18:56;;;;;;;;;78.80;69.20;;;;;;;;5037195;28;8753;-65
2022/05/15 07:21:23;;;;;;;;;35.75;30.00;;;;;;;;5035600;28;8757;-65
2022/05/15 07:23:50;;;;;;;;;61.50;46.50;;;;;;;;5018687;28;8729;-65
2022/05/15 07:26:17;;;;;;;;;21.75;18.75;;;;;;;;5036188;28;8780;-65
2022/05/15 07:28:50;;;;;;;;;48.50;36.75;;;;;;;;5036560;28;8816;-65
2022/05/15 07:31:22;;;;;;;;;71.40;59.60;;;;;;;;5037058;28;8742;-65
2022/05/15 07:33:49;;;;;;;;;70.40;55.20;;;;;;;;5039442;28;8851;-65
2022/05/15 07:36:16;;;;;;;;;77.25;59.25;;;;;;;;5040625;28;8769;-65
2022/05/15 07:38:43;;;;;;;;;52.25;41.25;;;;;;;;5040858;28;8773;-65
2022/05/15 07:41:10;;;;;;;;;37.50;28.75;;;;;;;;5040244;28;8773;-65
2022/05/15 07:43:37;;;;;;;;;33.25;30.75;;;;;;;;5040020;28;8797;-65
2022/05/15 07:46:07;;;;;;;;;38.75;34.00;;;;;;;;5023231;28;8904;-65
2022/05/15 07:48:33;;;;;;;;;31.00;23.00;;;;;;;;5022841;28;9450;-65
2022/05/15 07:51:00;;;;;;;;;17.80;15.80;;;;;;;;5040330;28;8765;-65
2022/05/15 07:53:27;;;;;;;;;19.50;16.25;;;;;;;;5040006;28;8778;-65
2022/05/15 07:55:59;;;;;;;;;21.50;18.00;;;;;;;;5022982;28;8804;-65
2022/05/15 07:58:26;;;;;;;;;17.25;16.00;;;;;;;;5040658;28;8745;-65
2022/05/15 08:00:54;;;;;;;;;21.50;17.50;;;;;;;;5023302;28;8769;-65
2022/05/15 08:03:21;;;;;;;;;17.00;14.60;;;;;;;;5022353;28;8757;-64
2022/05/15 08:08:33;;;;;;;;;22.25;22.25;;;;;;;;5040096;28;8781;-65
2022/05/15 08:11:03;;;;;;;;;24.75;19.25;;;;;;;;5040055;28;8781;-65
2022/05/15 08:13:31;;;;;;;;;35.50;30.25;;;;;;;;5039908;28;8757;-66
2022/05/15 08:15:58;;;;;;;;;31.75;28.50;;;;;;;;5040590;28;8738;-65
2022/05/15 08:23:56;;;;;;;;;18.25;14.75;;;;;;;;5020446;28;8901;-66
2022/05/15 08:26:23;;;;;;;;;17.75;14.75;;;;;;;;5054500;28;9074;-65
2022/05/15 08:28:49;;;;;;;;;23.75;22.25;;;;;;;;5042188;28;8868;-65
2022/05/15 08:31:17;;;;;;;;;22.25;20.50;;;;;;;;5060221;28;8746;-66
2022/05/15 08:33:44;;;;;;;;;17.00;16.75;;;;;;;;5059964;28;8727;-65
2022/05/15 08:36:11;;;;;;;;;22.40;18.00;;;;;;;;5059604;28;8829;-66
2022/05/15 08:38:38;;;;;;;;;17.50;16.25;;;;;;;;5059251;28;8805;-65
2022/05/15 08:41:07;;;;;;;;;23.75;16.00;;;;;;;;5039729;28;8751;-66
2022/05/15 08:43:41;;;;;;;;;22.00;13.80;;;;;;;;5017490;28;9440;-65
2022/05/15 08:46:17;;;;;;;;;12.80;10.60;;;;;;;;5019785;28;8775;-66
2022/05/15 08:48:43;;;;;;;;;28.00;25.50;;;;;;;;5034562;28;8869;-66
2022/05/15 08:51:11;;;;;;;;;18.00;14.75;;;;;;;;5019873;28;8769;-66
2022/05/15 08:53:38;;;;;;;;;21.25;15.75;;;;;;;;5019184;28;9104;-65
2022/05/15 08:56:08;;;;;;;;;21.00;18.25;;;;;;;;5005373;28;8911;-65
2022/05/15 08:58:55;;;;;;;;;41.75;32.75;;;;;;;;4982482;28;8876;-65
2022/05/15 09:01:23;;;;;;;;;19.80;19.00;;;;;;;;4999986;28;8776;-65
2022/05/15 09:03:50;;;;;;;;;31.00;24.75;;;;;;;;4999840;28;8880;-65
2022/05/15 09:06:32;;;;;;;;;23.75;19.25;;;;;;;;4999709;28;8801;-65
2022/05/15 09:09:08;;;;;;;;;37.25;28.75;;;;;;;;4999786;28;8781;-66
2022/05/15 09:11:55;;;;;;;;;42.25;33.00;;;;;;;;5032194;28;9574;-65
2022/05/15 09:14:40;;;;;;;;;35.75;26.75;;;;;;;;5019147;28;8750;-65
2022/05/15 09:17:13;;;;;;;;;27.50;21.75;;;;;;;;5019613;28;8731;-66
2022/05/15 09:19:39;;;;;;;;;50.75;40.50;;;;;;;;5019163;28;8746;-66
2022/05/15 09:22:06;;;;;;;;;35.50;28.25;;;;;;;;5038874;28;8863;-66
2022/05/15 09:24:47;;;;;;;;;35.75;26.75;;;;;;;;5018187;28;8925;-66
2022/05/15 09:27:21;;;;;;;;;57.00;44.25;;;;;;;;4998437;28;8781;-66
2022/05/15 09:29:54;;;;;;;;;47.25;34.75;;;;;;;;5019261;28;8759;-66
2022/05/15 09:32:35;;;;;;;;;50.25;35.25;;;;;;;;5018950;28;8886;-65
2022/05/15 09:35:02;;;;;;;;;18.75;17.00;;;;;;;;5001862;28;8747;-66
2022/05/15 09:40:24;;;;;;;;;20.50;17.50;;;;;;;;5027561;28;8860;-65
2022/05/15 09:45:37;;;;;;;;;20.50;16.50;;;;;;;;5038650;28;9442;-65
2022/05/15 09:48:05;;;;;;;;;18.60;16.20;;;;;;;;5038331;28;8785;-66
2022/05/15 09:50:38;;;;;;;;;18.75;18.75;;;;;;;;5038248;28;8753;-65
2022/05/15 09:53:15;;;;;;;;;31.20;27.60;;;;;;;;5038396;28;8745;-66
2022/05/15 09:55:42;;;;;;;;;27.25;19.75;;;;;;;;5016996;28;8767;-65
2022/05/15 09:58:17;;;;;;;;;23.25;16.50;;;;;;;;5018902;28;8739;-65
2022/05/15 10:00:44;;;;;;;;;19.00;16.20;;;;;;;;5018847;28;8779;-65
2022/05/15 10:03:23;;;;;;;;;15.20;14.00;;;;;;;;5018763;28;8759;-65
2022/05/15 10:06:06;;;;;;;;;17.40;16.00;;;;;;;;5016984;28;8798;-66
2022/05/15 10:08:33;;;;;;;;;17.20;13.00;;;;;;;;5018202;28;8790;-65
2022/05/15 10:11:04;;;;;;;;;19.00;16.40;;;;;;;;5016660;28;9401;-65
2022/05/15 10:13:40;;;;;;;;;21.60;19.20;;;;;;;;5036228;28;8749;-65
2022/05/15 10:16:19;;;;;;;;;11.60;10.00;;;;;;;;5039204;28;8740;-65
2022/05/15 10:18:57;;;;;;;;;20.00;16.60;;;;;;;;5017033;28;8779;-65
2022/05/15 10:21:25;;;;;;;;;20.20;18.40;;;;;;;;5016975;28;8781;-65
2022/05/15 10:23:55;;;;;;;;;21.20;19.60;;;;;;;;5025575;28;8779;-65
2022/05/15 10:26:45;;;;;;;;;21.75;18.75;;;;;;;;5001377;28;8780;-65
2022/05/15 10:29:14;;;;;;;;;14.40;11.40;;;;;;;;5010308;28;8866;-65
2022/05/15 10:31:44;;;;;;;;;18.40;15.80;;;;;;;;5000395;28;8866;-66
2022/05/15 10:34:11;;;;;;;;;21.60;17.00;;;;;;;;5001266;28;9448;-66
2022/05/15 10:36:57;;;;;;;;;18.80;16.80;;;;;;;;5017485;28;8835;-65
2022/05/15 10:39:27;;;;;;;;;20.25;19.50;;;;;;;;5017590;28;8822;-65
2022/05/15 10:42:10;;;;;;;;;21.75;18.50;;;;;;;;5007136;28;8780;-65
2022/05/15 10:44:52;;;;;;;;;25.20;19.60;;;;;;;;5017331;28;8803;-65
2022/05/15 10:47:20;;;;;;;;;17.60;17.20;;;;;;;;5017231;28;8772;-64
2022/05/15 10:50:02;;;;;;;;;22.75;19.00;;;;;;;;5017423;28;8772;-65
2022/05/15 10:52:48;;;;;;;;;29.75;27.50;;;;;;;;5017768;28;8736;-65
2022/05/15 10:58:21;;;;;;;;;27.75;25.75;;;;;;;;5017846;28;8755;-65
2022/05/15 11:00:55;;;;;;;;;28.60;24.00;;;;;;;;5016599;28;8774;-66
2022/05/15 11:03:25;;;;;;;;;29.67;23.00;;;;;;;;5015949;28;8782;-65
2022/05/15 11:06:00;;;;;;;;;30.00;26.00;;;;;;;;5017175;28;8787;-66
2022/05/15 11:08:45;;;;;;;;;29.75;25.50;;;;;;;;5016590;28;8779;-65
2022/05/15 11:11:20;;;;;;;;;26.00;21.50;;;;;;;;5017262;28;8809;-65
2022/05/15 11:13:47;;;;;;;;;48.00;35.75;;;;;;;;5017353;28;10544;-66
2022/05/15 11:16:32;;;;;;;;;67.00;51.25;;;;;;;;5017528;28;8773;-65
2022/05/15 11:19:04;;;;;;;;;25.75;24.75;;;;;;;;5017891;28;8759;-66
2022/05/15 11:21:34;;;;;;;;;26.20;23.60;;;;;;;;5017137;28;8877;-65
2022/05/15 11:24:03;;;;;;;;;30.25;25.00;;;;;;;;5015757;28;8759;-66
2022/05/15 11:26:55;;;;;;;;;21.25;19.00;;;;;;;;5016340;28;8844;-66
2022/05/15 11:29:22;;;;;;;;;35.50;32.00;;;;;;;;5005471;28;8778;-65
2022/05/15 11:31:56;;;;;;;;;32.40;27.80;;;;;;;;4999274;28;8802;-66
2022/05/15 11:34:42;;;;;;;;;23.75;20.00;;;;;;;;5017182;28;8832;-65
2022/05/15 11:37:27;;;;;;;;;22.75;18.00;;;;;;;;5017395;28;9430;-66
2022/05/15 11:39:58;;;;;;;;;21.80;17.40;;;;;;;;5017311;28;8767;-65
2022/05/15 11:42:27;;;;;;;;;22.00;18.80;;;;;;;;5016825;28;9431;-65
2022/05/15 11:44:54;;;;;;;;;17.40;12.80;;;;;;;;5016703;28;8795;-66
2022/05/15 11:47:21;;;;;;;;;18.40;18.40;;;;;;;;5016521;28;8805;-65
2022/05/15 11:49:58;;;;;;;;;25.25;21.25;;;;;;;;5016635;28;8767;-65
2022/05/15 11:52:33;;;;;;;;;18.40;16.60;;;;;;;;5016414;28;8790;-64
2022/05/15 11:55:00;;;;;;;;;21.20;16.60;;;;;;;;5017454;28;8767;-65
2022/05/15 11:57:38;;;;;;;;;19.80;19.20;;;;;;;;5031264;28;9467;-65
2022/05/15 12:00:06;;;;;;;;;20.20;15.00;;;;;;;;5036815;28;8781;-66
2022/05/15 12:02:35;;;;;;;;;19.40;17.60;;;;;;;;5005153;28;8809;-65
2022/05/15 12:05:10;;;;;;;;;15.40;13.00;;;;;;;;5016257;28;8823;-65
2022/05/15 12:07:52;;;;;;;;;20.40;19.20;;;;;;;;5015064;28;8777;-65
2022/05/15 12:10:41;;;;;;;;;22.00;17.80;;;;;;;;5017172;28;8723;-65
2022/05/15 12:13:12;;;;;;;;;17.40;16.60;;;;;;;;5027738;28;8780;-65
2022/05/15 12:15:46;;;;;;;;;26.80;19.20;;;;;;;;5036396;28;8812;-65
2022/05/15 12:18:13;;;;;;;;;20.20;17.60;;;;;;;;5015483;28;8986;-66
2022/05/15 12:20:46;;;;;;;;;23.80;16.80;;;;;;;;5029107;28;8759;-65
2022/05/15 12:23:15;;;;;;;;;20.80;17.00;;;;;;;;5022316;28;8822;-65
2022/05/15 12:26:02;;;;;;;;;14.80;14.80;;;;;;;;5021735;28;8806;-65
2022/05/15 12:28:53;;;;;;;;;18.60;17.20;;;;;;;;5040007;28;8844;-65
2022/05/15 12:31:20;;;;;;;;;21.80;19.20;;;;;;;;5023568;28;8762;-65
2022/05/15 12:33:46;;;;;;;;;17.60;17.60;;;;;;;;5022113;28;8741;-66
2022/05/15 12:36:17;;;;;;;;;19.40;19.40;;;;;;;;5039815;28;8871;-65
2022/05/15 12:38:45;;;;;;;;;18.60;17.80;;;;;;;;5039565;28;8781;-65
2022/05/15 12:41:17;;;;;;;;;21.20;18.60;;;;;;;;5021499;28;8868;-65
2022/05/15 12:43:44;;;;;;;;;25.75;20.50;;;;;;;;5039544;28;8745;-65
2022/05/15 12:46:31;;;;;;;;;18.60;17.60;;;;;;;;5039997;28;8804;-65
2022/05/15 12:48:58;;;;;;;;;17.80;15.00;;;;;;;;5039811;28;8773;-65
2022/05/15 12:51:25;;;;;;;;;20.00;17.80;;;;;;;;5037821;28;8781;-65
2022/05/15 12:53:52;;;;;;;;;18.60;18.60;;;;;;;;5037905;28;8888;-65
2022/05/15 12:56:20;;;;;;;;;25.00;21.40;;;;;;;;5017615;28;8816;-65
2022/05/15 12:58:49;;;;;;;;;22.60;21.20;;;;;;;;5019468;28;8902;-65
2022/05/15 13:01:15;;;;;;;;;22.40;18.00;;;;;;;;5020314;28;8762;-65
2022/05/15 13:03:43;;;;;;;;;23.20;19.40;;;;;;;;5019144;28;8747;-65
2022/05/15 13:06:10;;;;;;;;;20.20;17.40;;;;;;;;5019300;28;8825;-65
2022/05/15 13:08:48;;;;;;;;;35.50;30.00;;;;;;;;5019193;28;8775;-65
2022/05/15 13:11:25;;;;;;;;;39.50;33.00;;;;;;;;5019122;28;8849;-65
2022/05/15 13:13:55;;;;;;;;;29.75;28.00;;;;;;;;5034525;28;8770;-65
2022/05/15 13:16:23;;;;;;;;;26.50;22.25;;;;;;;;5018234;28;8778;-65
2022/05/15 13:18:50;;;;;;;;;23.80;23.20;;;;;;;;5018269;28;8735;-65
2022/05/15 13:21:26;;;;;;;;;28.40;26.00;;;;;;;;5018051;28;8775;-65
2022/05/15 13:23:53;;;;;;;;;24.25;23.25;;;;;;;;5017730;28;8767;-65
2022/05/15 13:26:25;;;;;;;;;25.50;20.75;;;;;;;;5018468;28;8791;-65
2022/05/15 13:28:52;;;;;;;;;25.25;23.25;;;;;;;;5018933;28;9404;-65
2022/05/15 13:31:18;;;;;;;;;29.00;24.25;;;;;;;;5018784;28;8754;-64
2022/05/15 13:33:45;;;;;;;;;27.75;23.50;;;;;;;;5018922;28;8758;-65
2022/05/15 13:36:15;;;;;;;;;21.50;20.25;;;;;;;;5018860;28;8806;-65
2022/05/15 13:44:16;;;;;;;;;38.50;29.50;;;;;;;;5017948;28;8771;-66
2022/05/15 13:46:45;;;;;;;;;38.00;33.25;;;;;;;;5017334;28;8756;-66
2022/05/15 13:49:14;;;;;;;;;22.00;20.50;;;;;;;;5017933;28;8775;-65
2022/05/15 13:51:45;;;;;;;;;36.75;30.00;;;;;;;;5017067;28;8793;-65
2022/05/15 13:54:14;;;;;;;;;38.50;31.25;;;;;;;;5018434;28;8860;-65
2022/05/15 13:56:44;;;;;;;;;36.50;31.00;;;;;;;;5026501;28;8900;-65
2022/05/15 13:59:31;;;;;;;;;34.50;31.00;;;;;;;;5021308;28;8761;-65
2022/05/15 14:02:10;;;;;;;;;43.50;34.75;;;;;;;;5038212;28;8776;-65
2022/05/15 14:04:36;;;;;;;;;42.25;36.00;;;;;;;;5038031;28;8749;-65
2022/05/15 14:07:03;;;;;;;;;48.50;38.00;;;;;;;;5020422;28;8785;-65
2022/05/15 14:09:48;;;;;;;;;47.25;36.00;;;;;;;;5020082;28;8762;-66
2022/05/15 14:12:15;;;;;;;;;37.50;32.50;;;;;;;;5038118;28;8787;-65
2022/05/15 14:14:56;;;;;;;;;45.00;35.50;;;;;;;;5037595;28;8785;-65
2022/05/15 14:17:22;;;;;;;;;46.25;37.25;;;;;;;;5038100;28;8796;-65
2022/05/15 14:19:50;;;;;;;;;45.50;35.50;;;;;;;;5036430;28;9485;-65
2022/05/15 14:22:17;;;;;;;;;45.25;35.00;;;;;;;;5038115;28;8785;-65
2022/05/15 14:24:44;;;;;;;;;38.50;32.25;;;;;;;;5037409;28;8769;-66
2022/05/15 14:27:11;;;;;;;;;37.00;30.75;;;;;;;;5037768;28;8788;-66
2022/05/15 14:29:39;;;;;;;;;35.00;30.50;;;;;;;;5037222;28;8800;-65
2022/05/15 14:32:06;;;;;;;;;36.25;30.75;;;;;;;;5037315;28;8773;-65
2022/05/15 14:34:33;;;;;;;;;36.75;30.50;;;;;;;;5037319;28;8773;-65
2022/05/15 14:37:00;;;;;;;;;30.75;25.50;;;;;;;;5038034;28;9450;-65
2022/05/15 14:39:27;;;;;;;;;32.75;28.75;;;;;;;;5036764;28;8749;-65
2022/05/15 14:41:55;;;;;;;;;31.50;28.00;;;;;;;;5036671;28;8878;-65
2022/05/15 14:44:22;;;;;;;;;36.25;30.50;;;;;;;;5036863;28;8771;-65
2022/05/15 14:46:49;;;;;;;;;30.00;29.50;;;;;;;;5036880;28;8753;-65
2022/05/15 14:49:16;;;;;;;;;32.00;26.00;;;;;;;;5020257;28;8848;-65
2022/05/15 14:51:43;;;;;;;;;29.75;26.50;;;;;;;;5037002;28;8742;-65
2022/05/15 14:54:14;;;;;;;;;33.50;28.50;;;;;;;;5009600;28;8741;-66
2022/05/15 14:56:41;;;;;;;;;31.00;28.25;;;;;;;;4999640;28;8810;-65
2022/05/15 14:59:28;;;;;;;;;35.25;32.50;;;;;;;;5017244;28;8747;-65
2022/05/15 15:01:55;;;;;;;;;37.75;31.50;;;;;;;;5017300;28;9427;-65
2022/05/15 15:04:21;;;;;;;;;31.00;29.25;;;;;;;;5017544;28;8735;-65
2022/05/15 15:06:48;;;;;;;;;34.75;29.75;;;;;;;;5017178;28;8747;-65
2022/05/15 15:09:15;;;;;;;;;32.75;29.00;;;;;;;;5017267;28;8825;-65
2022/05/15 15:11:52;;;;;;;;;33.50;28.50;;;;;;;;5017085;28;8789;-65